Skip to main content.
 TIME   TEMPERATURE   WINDSPEED   DIRECTION   HUMIDITY   BAROMETER   RAINFALL 
6:20 22.0°C (71.6°F) 7.4 kmh (4.6 mph) WSW 94% 1015.9hPa (30.00 inHg) 0.0mm (0.00 in.)
5:20 23.0°C (73.4 °F) 3.7 kmh (2.3 mph) WSW 94% 1015.9hPa (30.00 inHg) 0.0mm (0.00 in.)
4:20 22.0°C (71.6 °F) 5.6 kmh (3.5 mph) WSW 94% 1015.9hPa (30.00 inHg) 0.0mm (0.00 in.)
3:20 23.0°C (73.4 °F) 5.6 kmh (3.5 mph) WSW 88% 1015.9hPa (30.00 inHg) 0.0mm (0.00 in.)
2:20 22.0°C (71.6 °F) 9.3 kmh (5.8 mph) WSW 94% 1016.9hPa (30.03 inHg) 0.0mm (0.00 in.)
1:20 22.0°C (71.6 °F) 3.7 kmh (2.3 mph) W 94% 1016.9hPa (30.03 inHg) 0.0mm (0.00 in.)
0:20 23.0°C (73.4 °F) 5.6 kmh (3.5 mph) WSW 88% 1016.9hPa (30.03 inHg) 0.0mm (0.00 in.)
23:20 23.0°C (73.4 °F) 3.7 kmh (2.3 mph) WSW 88% 1016.9hPa (30.03 inHg) 0.0mm (0.00 in.)
22:20 24.0°C (75.2 °F) 9.3 kmh (5.8 mph) WNW 88% 1016.9hPa (30.03 inHg) 0.0mm (0.00 in.)
21:20 24.0°C (75.2 °F) 7.4 kmh (4.6 mph) WNW 88% 1016.9hPa (30.03 inHg) 0.0mm (0.00 in.)
20:20 25.0°C (77.0 °F) 7.4 kmh (4.6 mph) WSW 83% 1015.9hPa (30.00 inHg) 0.0mm (0.00 in.)
19:20 26.0°C (78.8 °F) 9.3 kmh (5.8 mph) SW 73% 1015.9hPa (30.00 inHg) 0.0mm (0.00 in.)
18:20 27.0°C (80.6 °F) 11.1 kmh (6.9 mph) SW 69% 1015.9hPa (30.00 inHg) 0.0mm (0.00 in.)
17:20 28.0°C (82.4 °F) 14.8 kmh (9.2 mph) SW 65% 1015.9hPa (30.00 inHg) 0.0mm (0.00 in.)
16:20 28.0°C (82.4 °F) 14.8 kmh (9.2 mph) S 61% 1015.9hPa (30.00 inHg) 0.0mm (0.00 in.)
15:20 29.0°C (84.2 °F) 13.0 kmh (8.1 mph) SSW 54% 1016.9hPa (30.03 inHg) 0.0mm (0.00 in.)
14:20 29.0°C (84.2 °F) 11.1 kmh (6.9 mph) SSW 58% 1016.9hPa (30.03 inHg) 0.0mm (0.00 in.)
13:20 29.0°C (84.2 °F) 7.4 kmh (4.6 mph) S 58% 1017.9hPa (30.06 inHg) 0.0mm (0.00 in.)
12:20 28.0°C (82.4 °F) 11.1 kmh (6.9 mph) SSW 58% 1017.9hPa (30.06 inHg) 0.0mm (0.00 in.)
11:20 28.0°C (82.4 °F) 7.4 kmh (4.6 mph) SW 61% 1017.9hPa (30.06 inHg) 0.0mm (0.00 in.)
10:20 28.0°C (82.4 °F) 5.6 kmh (3.5 mph) SSW 58% 1017.9hPa (30.06 inHg) 0.0mm (0.00 in.)
9:20 25.0°C (77.0 °F) 5.6 kmh (3.5 mph) SW 88% 1016.9hPa (30.03 inHg) 0.0mm (0.00 in.)
8:20 23.0°C (73.4 °F) 3.7 kmh (2.3 mph) W 94% 1016.9hPa (30.03 inHg) 0.0mm (0.00 in.)
7:20 22.0°C (71.6 °F) 3.7 kmh (2.3 mph) WNW 100% 1015.9hPa (30.00 inHg) 0.0mm (0.00 in.)